createdAt,value
2017-12-03T00:00:04.809Z,4
2017-12-03T00:15:07.410Z,4
2017-12-03T00:30:08.072Z,3.9
2017-12-03T00:45:04.934Z,3.9
2017-12-03T01:00:04.842Z,3.9
2017-12-03T01:15:04.785Z,4.1
2017-12-03T01:30:04.881Z,3.9
2017-12-03T01:45:05.300Z,3.9
2017-12-03T02:00:07.669Z,4
2017-12-03T02:15:08.430Z,3.9
2017-12-03T02:30:05.433Z,3.8
2017-12-03T02:45:04.560Z,3.6
2017-12-03T03:00:11.125Z,3.5
2017-12-03T03:15:04.753Z,3.5
2017-12-03T03:30:07.922Z,3.4
2017-12-03T03:45:12.419Z,3.2
2017-12-03T04:00:04.438Z,3.4
2017-12-03T04:15:04.849Z,3.6
2017-12-03T04:30:04.645Z,3.4
2017-12-03T04:45:05.312Z,3.3
2017-12-03T05:00:05.399Z,3.4
2017-12-03T05:15:04.313Z,3.3
2017-12-03T05:30:04.678Z,3.3
2017-12-03T05:45:05.200Z,3.2
2017-12-03T06:00:11.707Z,3.3
2017-12-03T06:15:08.460Z,3.4
2017-12-03T06:30:06.119Z,3.2
2017-12-03T06:45:04.642Z,3.3
2017-12-03T07:00:06.115Z,3.3
2017-12-03T07:15:08.238Z,3.5
2017-12-03T07:30:04.968Z,3.5
2017-12-03T07:45:05.443Z,3.4
2017-12-03T08:00:04.934Z,3.4
2017-12-03T08:15:05.042Z,3.5
2017-12-03T08:30:04.806Z,3.7
2017-12-03T08:45:06.210Z,3.7
2017-12-03T09:00:07.799Z,3.8
2017-12-03T09:15:05.408Z,4
2017-12-03T09:30:08.272Z,4.3
2017-12-03T09:45:05.145Z,4.7
2017-12-03T10:00:05.796Z,4.9
2017-12-03T10:15:05.889Z,4.7
2017-12-03T10:30:04.855Z,4.7
2017-12-03T10:45:04.351Z,4.5
2017-12-03T11:00:04.429Z,4.6
2017-12-03T11:15:04.837Z,4.7
2017-12-03T11:30:05.550Z,5.2
2017-12-03T11:45:06.194Z,5.3
2017-12-03T12:00:04.839Z,5.5
2017-12-03T12:15:07.237Z,5.6
2017-12-03T12:30:05.891Z,5.6
2017-12-03T12:45:04.242Z,5.8
2017-12-03T13:00:04.726Z,6.1
2017-12-03T13:15:04.670Z,6
2017-12-03T13:30:04.213Z,6.1
2017-12-03T13:45:07.638Z,5.9
2017-12-03T14:00:05.032Z,5.4
2017-12-03T14:15:04.913Z,5.2
2017-12-03T14:30:04.461Z,5.2
2017-12-03T14:45:04.835Z,5.3
2017-12-03T15:00:04.693Z,5
2017-12-03T15:15:05.174Z,4.9
2017-12-03T15:30:04.244Z,4.9
2017-12-03T15:45:07.350Z,4.9
2017-12-03T16:00:04.677Z,4.9
2017-12-03T16:15:04.532Z,4.8
2017-12-03T16:30:05.268Z,4.7
2017-12-03T16:45:04.721Z,4.7
2017-12-03T17:00:05.111Z,4.8
2017-12-03T17:15:05.685Z,4.6
2017-12-03T17:30:05.084Z,4.7
2017-12-03T17:47:14.888Z,4.6
2017-12-03T18:00:04.352Z,4.4
2017-12-03T18:15:05.968Z,4.5
2017-12-03T18:30:05.148Z,4.4
2017-12-03T18:45:05.249Z,4.7
2017-12-03T19:00:11.793Z,4.5
2017-12-03T19:15:07.315Z,4.6
2017-12-03T19:30:06.225Z,4.4
2017-12-03T19:45:05.630Z,4.6
2017-12-03T20:00:04.525Z,4.6
2017-12-03T20:15:05.210Z,4.7
2017-12-03T20:30:04.696Z,4.5
2017-12-03T20:45:05.080Z,4.4
2017-12-03T21:00:05.171Z,4.3
2017-12-03T21:15:05.111Z,4.3
2017-12-03T21:30:07.737Z,4.3
2017-12-03T21:45:06.427Z,4.3
2017-12-03T22:00:05.640Z,4.4
2017-12-03T22:15:07.795Z,4.4
2017-12-03T22:30:05.505Z,4.2
2017-12-03T22:45:07.627Z,4.1
2017-12-03T23:00:04.644Z,4.1
2017-12-03T23:15:06.547Z,4.2
2017-12-03T23:30:05.424Z,4
2017-12-03T23:45:07.475Z,3.8
